createdAt,value
2023-08-07T00:02:21.063Z,97520.06
2023-08-07T00:04:48.002Z,97522.53
2023-08-07T00:07:15.207Z,97524.97
2023-08-07T00:09:42.871Z,97517.63
2023-08-07T00:12:10.464Z,97517.63
2023-08-07T00:14:37.376Z,97507.94
2023-08-07T00:17:06.854Z,97508.56
2023-08-07T00:19:33.817Z,97505.09
2023-08-07T00:22:01.322Z,97508.72
2023-08-07T00:24:28.268Z,97507.41
2023-08-07T00:26:55.703Z,97518.75
2023-08-07T00:29:22.927Z,97505.09
2023-08-07T00:31:50.651Z,97504.50
2023-08-07T00:34:17.583Z,97499.88
2023-08-07T00:36:45.106Z,97512.47
2023-08-07T00:39:12.035Z,97503.34
2023-08-07T00:41:39.260Z,97501.59
2023-08-07T00:44:07.279Z,97509.81
2023-08-07T00:46:35.060Z,97503.41
2023-08-07T00:49:02.842Z,97514.63
2023-08-07T00:51:30.634Z,97521.97
2023-08-07T00:53:57.888Z,97521.72
2023-08-07T00:56:26.912Z,97515.97
2023-08-07T00:58:54.559Z,97522.91
2023-08-07T01:01:22.085Z,97523.38
2023-08-07T01:03:49.161Z,97525.41
2023-08-07T01:06:16.496Z,97521.41
2023-08-07T01:08:44.109Z,97528.50
2023-08-07T01:11:37.372Z,97530.97
2023-08-07T01:14:15.037Z,97518.97
2023-08-07T01:17:05.917Z,97527.38
2023-08-07T01:19:35.301Z,97525.91
2023-08-07T01:22:15.712Z,97523.56
2023-08-07T01:24:48.687Z,97523.91
2023-08-07T01:27:18.672Z,97526.94
2023-08-07T01:30:07.118Z,97526.94
2023-08-07T01:32:48.788Z,97534.72
2023-08-07T01:35:20.821Z,97540.75
2023-08-07T01:37:49.975Z,97545.13
2023-08-07T01:40:18.707Z,97549.19
2023-08-07T01:42:46.854Z,97546.00
2023-08-07T01:45:14.048Z,97551.53
2023-08-07T01:47:41.340Z,97553.56
2023-08-07T01:50:08.619Z,97550.63
2023-08-07T01:52:36.005Z,97551.22
2023-08-07T01:55:02.981Z,97553.94
2023-08-07T01:57:30.270Z,97550.50
2023-08-07T01:59:57.223Z,97555.31
2023-08-07T02:02:24.862Z,97554.44
2023-08-07T02:04:52.013Z,97549.47
2023-08-07T02:07:19.312Z,97556.47
2023-08-07T02:09:46.231Z,97556.06
2023-08-07T02:12:13.388Z,97554.66
2023-08-07T02:14:40.314Z,97554.06
2023-08-07T02:17:07.520Z,97557.00
2023-08-07T02:19:34.537Z,97554.72
2023-08-07T02:22:02.540Z,97557.75
2023-08-07T02:24:29.529Z,97559.03
2023-08-07T02:26:57.001Z,97566.03
2023-08-07T02:29:24.291Z,97562.41
2023-08-07T02:31:51.574Z,97566.75
2023-08-07T02:34:18.613Z,97570.38
2023-08-07T02:36:45.830Z,97566.16
2023-08-07T02:39:15.823Z,97561.69
2023-08-07T02:41:43.210Z,97563.75
2023-08-07T02:44:10.176Z,97568.59
2023-08-07T02:46:37.644Z,97564.13
2023-08-07T02:49:05.832Z,97570.31
2023-08-07T02:51:33.967Z,97570.56
2023-08-07T02:54:00.825Z,97570.69
2023-08-07T02:56:28.185Z,97571.06
2023-08-07T02:58:55.163Z,97575.28
2023-08-07T03:01:22.784Z,97576.25
2023-08-07T03:03:49.705Z,97576.00
2023-08-07T03:06:17.095Z,97572.50
2023-08-07T03:08:44.087Z,97576.25
2023-08-07T03:11:11.381Z,97579.63
2023-08-07T03:13:38.399Z,97578.06
2023-08-07T03:16:07.440Z,97579.50
2023-08-07T03:18:34.794Z,97576.00
2023-08-07T03:21:02.295Z,97585.66
2023-08-07T03:23:30.196Z,97577.81
2023-08-07T03:26:23.991Z,97580.97
2023-08-07T03:28:51.990Z,97584.38
2023-08-07T03:31:19.265Z,97580.84
2023-08-07T03:33:46.262Z,97583.63
2023-08-07T03:36:13.564Z,97582.31
2023-08-07T03:38:40.493Z,97590.28
2023-08-07T03:41:07.723Z,97584.13
2023-08-07T03:43:34.778Z,97590.41
2023-08-07T03:46:03.841Z,97588.34
2023-08-07T03:48:32.158Z,97584.72
2023-08-07T03:51:09.687Z,97586.28
2023-08-07T03:53:37.783Z,97588.34
2023-08-07T03:56:05.339Z,97594.16
2023-08-07T03:58:32.790Z,97595.34
2023-08-07T04:01:00.096Z,97596.91
2023-08-07T04:03:27.324Z,97593.28
2023-08-07T04:05:56.206Z,97601.97
2023-08-07T04:08:24.465Z,97601.97
2023-08-07T04:11:05.935Z,97601.97
2023-08-07T04:13:33.500Z,97606.22
2023-08-07T04:16:02.918Z,97612.97
2023-08-07T04:18:30.022Z,97612.97
2023-08-07T04:20:58.449Z,97620.34
2023-08-07T04:23:26.018Z,97610.53
2023-08-07T04:25:56.148Z,97615.16
2023-08-07T04:28:23.372Z,97614.91
2023-08-07T04:30:52.634Z,97618.91
2023-08-07T04:33:21.131Z,97616.72
2023-08-07T04:35:49.051Z,97617.56
2023-08-07T04:38:17.967Z,97615.63
2023-08-07T04:40:50.210Z,97616.56
2023-08-07T04:43:19.027Z,97614.06
2023-08-07T04:45:46.909Z,97619.63
2023-08-07T04:48:14.899Z,97622.16
2023-08-07T04:50:42.739Z,97629.66
2023-08-07T04:53:09.879Z,97626.88
2023-08-07T04:55:37.269Z,97633.38
2023-08-07T04:58:04.509Z,97630.72
2023-08-07T05:00:32.070Z,97634.13
2023-08-07T05:02:59.246Z,97632.31
2023-08-07T05:05:26.728Z,97627.75
2023-08-07T05:07:56.041Z,97639.09
2023-08-07T05:10:23.287Z,97632.91
2023-08-07T05:12:56.118Z,97644.28
2023-08-07T05:15:25.260Z,97646.81
2023-08-07T05:17:53.562Z,97653.78
2023-08-07T05:20:21.330Z,97659.47
2023-08-07T05:22:48.926Z,97662.53
2023-08-07T05:25:17.431Z,97663.25
2023-08-07T05:27:46.698Z,97662.28
2023-08-07T05:30:15.257Z,97657.69
2023-08-07T05:32:43.041Z,97671.09
2023-08-07T05:35:10.598Z,97662.03
2023-08-07T05:37:37.687Z,97671.69
2023-08-07T05:40:08.891Z,97676.88
2023-08-07T05:42:36.132Z,97671.44
2023-08-07T05:45:04.896Z,97676.72
2023-08-07T05:47:34.017Z,97677.47
2023-08-07T05:50:01.954Z,97684.22
2023-08-07T05:52:29.013Z,97685.91
2023-08-07T05:54:56.201Z,97686.50
2023-08-07T05:57:23.164Z,97686.38
2023-08-07T05:59:50.572Z,97696.50
2023-08-07T06:02:17.912Z,97697.84
2023-08-07T06:04:46.307Z,97689.84
2023-08-07T06:07:13.215Z,97704.72
2023-08-07T06:09:40.598Z,97704.00
2023-08-07T06:12:08.595Z,97705.56
2023-08-07T06:14:35.885Z,97714.16
2023-08-07T06:17:03.160Z,97718.34
2023-08-07T06:19:32.980Z,97715.47
2023-08-07T06:22:01.708Z,97716.69
2023-08-07T06:24:30.204Z,97716.75
2023-08-07T06:26:57.251Z,97719.28
2023-08-07T06:29:24.574Z,97716.25
2023-08-07T06:31:51.757Z,97730.03
2023-08-07T06:34:19.114Z,97726.13
2023-08-07T06:36:46.176Z,97728.78
2023-08-07T06:39:13.444Z,97742.84
2023-08-07T06:41:40.673Z,97740.75
2023-08-07T06:44:08.176Z,97740.38
2023-08-07T06:46:35.243Z,97742.53
2023-08-07T06:49:02.517Z,97741.56
2023-08-07T06:51:29.577Z,97745.41
2023-08-07T06:53:56.868Z,97748.63
2023-08-07T06:56:23.971Z,97754.09
2023-08-07T06:58:51.326Z,97760.13
2023-08-07T07:01:18.665Z,97754.59
2023-08-07T07:03:48.129Z,97761.59
2023-08-07T07:06:15.268Z,97775.63
2023-08-07T07:08:42.527Z,97765.69
2023-08-07T07:11:09.615Z,97772.13
2023-08-07T07:13:37.290Z,97778.28
2023-08-07T07:16:04.727Z,97783.75
2023-08-07T07:18:32.307Z,97798.19
2023-08-07T07:20:59.993Z,97793.31
2023-08-07T07:23:28.209Z,97796.69
2023-08-07T07:25:55.369Z,97792.94
2023-08-07T07:28:22.733Z,97804.09
2023-08-07T07:30:51.286Z,97812.78
2023-08-07T07:33:18.717Z,97816.88
2023-08-07T07:35:46.154Z,97809.22
2023-08-07T07:38:13.509Z,97806.31
2023-08-07T07:40:40.573Z,97820.50
2023-08-07T07:43:07.950Z,97819.97
2023-08-07T07:45:36.965Z,97827.81
2023-08-07T07:48:05.517Z,97823.22
2023-08-07T07:50:32.626Z,97825.03
2023-08-07T07:52:59.936Z,97830.25
2023-08-07T07:55:27.204Z,97830.00
2023-08-07T07:57:56.308Z,97838.44
2023-08-07T08:00:27.965Z,97844.09
2023-08-07T08:02:55.472Z,97840.78
2023-08-07T08:05:23.128Z,97847.44
2023-08-07T08:07:50.623Z,97842.25
2023-08-07T08:10:18.651Z,97854.00
2023-08-07T08:12:47.714Z,97853.06
2023-08-07T08:15:14.960Z,97853.25
2023-08-07T08:17:42.757Z,97849.34
2023-08-07T08:20:10.828Z,97850.19
2023-08-07T08:22:38.481Z,97857.59
2023-08-07T08:25:06.129Z,97863.44
2023-08-07T08:27:33.742Z,97862.19
2023-08-07T08:30:00.898Z,97880.03
2023-08-07T08:32:28.487Z,97876.22
2023-08-07T08:34:55.455Z,97879.72
2023-08-07T08:37:23.043Z,97877.50
2023-08-07T08:39:51.178Z,97878.19
2023-08-07T08:42:19.049Z,97884.81
2023-08-07T08:44:57.620Z,97898.47
2023-08-07T08:47:28.084Z,97892.63
2023-08-07T08:50:13.564Z,97890.28
2023-08-07T08:52:45.791Z,97905.25
2023-08-07T08:55:14.823Z,97898.13
2023-08-07T08:57:43.536Z,97900.81
2023-08-07T09:00:22.427Z,97912.69
2023-08-07T09:02:51.889Z,97910.31
2023-08-07T09:05:22.068Z,97915.66
2023-08-07T09:07:50.562Z,97917.16
2023-08-07T09:10:18.484Z,97924.06
2023-08-07T09:13:06.141Z,97928.88
2023-08-07T09:15:34.363Z,97937.59
2023-08-07T09:18:03.767Z,97934.22
2023-08-07T09:20:31.104Z,97939.88
2023-08-07T09:22:58.379Z,97942.69
2023-08-07T09:25:32.269Z,97944.25
2023-08-07T09:28:05.384Z,97953.41
2023-08-07T09:30:36.199Z,97951.56
2023-08-07T09:33:04.186Z,97957.50
2023-08-07T09:35:34.329Z,97952.88
2023-08-07T09:38:02.789Z,97956.38
2023-08-07T09:40:32.426Z,97963.56
2023-08-07T09:43:03.339Z,97960.63
2023-08-07T09:45:32.645Z,97960.19
2023-08-07T09:48:07.491Z,97966.75
2023-08-07T09:50:34.653Z,97964.50
2023-08-07T09:53:02.970Z,97971.28
2023-08-07T09:55:30.326Z,97969.31
2023-08-07T09:57:57.606Z,97966.59
2023-08-07T10:00:24.692Z,97977.56
2023-08-07T10:02:52.891Z,97983.06
2023-08-07T10:05:20.174Z,97981.38
2023-08-07T10:07:50.714Z,97987.84
2023-08-07T10:10:18.491Z,97996.25
2023-08-07T10:12:48.974Z,97999.00
2023-08-07T10:15:16.811Z,98007.22
2023-08-07T10:17:44.916Z,97992.84
2023-08-07T10:20:14.175Z,97996.44
2023-08-07T10:22:44.155Z,98003.56
2023-08-07T10:25:11.364Z,98001.72
2023-08-07T10:27:42.931Z,98011.63
2023-08-07T10:30:15.718Z,98007.00
2023-08-07T10:32:45.533Z,98009.84
2023-08-07T10:35:31.795Z,98004.78
2023-08-07T10:38:11.170Z,97998.50
2023-08-07T10:41:04.620Z,97993.91
2023-08-07T10:43:32.535Z,98006.81
2023-08-07T10:46:24.054Z,97997.09
2023-08-07T10:49:00.742Z,97998.81
2023-08-07T10:51:34.694Z,98001.19
2023-08-07T10:54:03.509Z,98010.66
2023-08-07T10:56:37.763Z,98005.03
2023-08-07T10:59:13.275Z,98002.81
2023-08-07T11:01:40.296Z,98008.31
2023-08-07T11:04:16.755Z,98004.81
2023-08-07T11:06:48.905Z,97998.34
2023-08-07T11:09:16.420Z,97994.00
2023-08-07T11:11:47.453Z,97989.94
2023-08-07T11:14:18.179Z,97994.72
2023-08-07T11:16:47.886Z,97998.25
2023-08-07T11:19:18.197Z,97991.31
2023-08-07T11:21:45.861Z,97991.47
2023-08-07T11:24:15.099Z,97990.47
2023-08-07T11:26:45.848Z,97987.69
2023-08-07T11:29:20.533Z,97991.31
2023-08-07T11:31:48.381Z,97986.97
2023-08-07T11:34:18.818Z,97991.75
2023-08-07T11:36:47.049Z,97979.94
2023-08-07T11:39:15.878Z,97991.34
2023-08-07T11:41:43.299Z,97989.38
2023-08-07T11:44:11.240Z,97998.09
2023-08-07T11:46:38.817Z,98005.19
2023-08-07T11:49:06.763Z,98002.38
2023-08-07T11:51:34.172Z,98003.19
2023-08-07T11:54:02.997Z,98000.25
2023-08-07T11:56:31.837Z,98001.09
2023-08-07T11:58:59.590Z,98007.13
2023-08-07T12:01:29.172Z,98017.84
2023-08-07T12:04:11.595Z,98012.34
2023-08-07T12:06:43.507Z,98020.94
2023-08-07T12:09:14.595Z,98037.97
2023-08-07T12:11:42.128Z,98037.00
2023-08-07T12:14:16.719Z,98036.13
2023-08-07T12:16:49.439Z,98025.13
2023-08-07T12:19:18.287Z,98027.38
2023-08-07T12:21:45.908Z,98030.19
2023-08-07T12:24:14.620Z,98036.53
2023-08-07T12:26:41.768Z,98034.13
2023-08-07T12:29:09.632Z,98040.19
2023-08-07T12:31:39.706Z,98047.94
2023-08-07T12:36:37.469Z,98047.09
2023-08-07T12:39:07.422Z,98049.78
2023-08-07T12:44:06.687Z,98051.63
2023-08-07T12:46:36.159Z,98063.16
2023-08-07T12:49:05.741Z,98044.00
2023-08-07T12:51:35.656Z,98067.13
2023-08-07T12:54:03.670Z,98058.56
2023-08-07T12:56:30.915Z,98054.72
2023-08-07T12:58:58.686Z,98048.66
2023-08-07T13:01:26.927Z,98057.13
2023-08-07T13:03:54.585Z,98052.84
2023-08-07T13:06:22.117Z,98060.00
2023-08-07T13:08:49.339Z,98051.53
2023-08-07T13:11:16.512Z,98060.53
2023-08-07T13:13:44.013Z,98049.06
2023-08-07T13:16:10.907Z,98055.16
2023-08-07T13:18:38.282Z,98058.72
2023-08-07T13:21:05.337Z,98064.38
2023-08-07T13:23:32.708Z,98068.09
2023-08-07T13:25:59.742Z,98062.25
2023-08-07T13:28:28.459Z,98077.56
2023-08-07T13:30:57.397Z,98081.53
2023-08-07T13:33:25.138Z,98082.25
2023-08-07T13:35:52.040Z,98072.78
2023-08-07T13:38:19.998Z,98089.03
2023-08-07T13:40:47.317Z,98079.69
2023-08-07T13:43:14.953Z,98089.28
2023-08-07T13:45:42.033Z,98086.84
2023-08-07T13:48:10.974Z,98090.34
2023-08-07T13:50:39.377Z,98100.56
2023-08-07T13:53:14.224Z,98101.69
2023-08-07T13:55:43.226Z,98095.63
2023-08-07T13:58:11.142Z,98105.22
2023-08-07T14:00:39.971Z,98109.47
2023-08-07T14:03:07.488Z,98116.69
2023-08-07T14:05:34.618Z,98113.16
2023-08-07T14:08:03.570Z,98117.19
2023-08-07T14:10:30.808Z,98119.41
2023-08-07T14:12:58.447Z,98133.50
2023-08-07T14:15:26.113Z,98133.69
2023-08-07T14:17:54.708Z,98130.16
2023-08-07T14:20:23.524Z,98137.91
2023-08-07T14:22:52.172Z,98141.88
2023-08-07T14:25:19.350Z,98148.50
2023-08-07T14:27:49.229Z,98140.91
2023-08-07T14:30:16.955Z,98152.19
2023-08-07T14:32:44.808Z,98150.88
2023-08-07T14:35:12.254Z,98140.03
2023-08-07T14:37:39.450Z,98155.03
2023-08-07T14:40:09.620Z,98163.50
2023-08-07T14:42:37.092Z,98173.94
2023-08-07T14:45:04.954Z,98170.00
2023-08-07T14:47:32.414Z,98184.09
2023-08-07T14:50:00.113Z,98179.91
2023-08-07T14:52:28.122Z,98180.72
2023-08-07T14:54:58.589Z,98179.34
2023-08-07T14:57:25.844Z,98174.13
2023-08-07T14:59:52.992Z,98190.63
2023-08-07T15:02:20.532Z,98192.00
2023-08-07T15:04:47.615Z,98182.16
2023-08-07T15:07:15.613Z,98196.25
2023-08-07T15:09:43.092Z,98194.00
2023-08-07T15:12:11.723Z,98200.47
2023-08-07T15:14:39.557Z,98195.41
2023-08-07T15:17:07.129Z,98197.97
2023-08-07T15:19:34.396Z,98198.47
2023-08-07T15:22:02.064Z,98205.38
2023-08-07T15:24:29.848Z,98206.09
2023-08-07T15:27:02.415Z,98197.19
2023-08-07T15:29:30.071Z,98197.03
2023-08-07T15:31:57.763Z,98211.75
2023-08-07T15:34:24.965Z,98208.47
2023-08-07T15:36:52.437Z,98202.84
2023-08-07T15:39:19.755Z,98213.97
2023-08-07T15:41:47.025Z,98207.78
2023-08-07T15:44:13.953Z,98218.38
2023-08-07T15:46:41.556Z,98219.91
2023-08-07T15:49:08.580Z,98222.88
2023-08-07T15:51:36.199Z,98231.22
2023-08-07T15:54:03.469Z,98217.53
2023-08-07T15:56:30.858Z,98226.94
2023-08-07T15:58:58.188Z,98235.06
2023-08-07T16:01:25.579Z,98237.38
2023-08-07T16:03:52.590Z,98224.31
2023-08-07T16:06:21.177Z,98229.94
2023-08-07T16:08:48.660Z,98227.25
2023-08-07T16:11:16.403Z,98236.03
2023-08-07T16:13:43.597Z,98232.31
2023-08-07T16:16:11.025Z,98234.84
2023-08-07T16:18:39.578Z,98226.25
2023-08-07T16:21:08.911Z,98233.97
2023-08-07T16:23:36.737Z,98239.00
2023-08-07T16:26:04.363Z,98239.72
2023-08-07T16:28:31.716Z,98246.03
2023-08-07T16:30:59.834Z,98256.88
2023-08-07T16:33:26.719Z,98247.47
2023-08-07T16:35:54.487Z,98256.88
2023-08-07T16:38:21.952Z,98253.16
2023-08-07T16:40:49.399Z,98248.94
2023-08-07T16:43:16.516Z,98257.63
2023-08-07T16:45:43.838Z,98262.13
2023-08-07T16:48:11.271Z,98270.66
2023-08-07T16:50:38.557Z,98262.75
2023-08-07T16:53:05.890Z,98264.47
2023-08-07T16:55:33.109Z,98276.44
2023-08-07T16:58:00.132Z,98274.78
2023-08-07T17:00:27.436Z,98269.69
2023-08-07T17:02:54.565Z,98270.91
2023-08-07T17:05:26.010Z,98272.19
2023-08-07T17:07:53.317Z,98274.69
2023-08-07T17:10:21.328Z,98293.19
2023-08-07T17:12:48.459Z,98291.78
2023-08-07T17:15:15.683Z,98275.25
2023-08-07T17:17:42.889Z,98295.47
2023-08-07T17:20:11.318Z,98293.47
2023-08-07T17:22:39.054Z,98299.28
2023-08-07T17:25:07.041Z,98306.31
2023-08-07T17:27:34.218Z,98304.34
2023-08-07T17:30:01.650Z,98311.44
2023-08-07T17:32:28.868Z,98299.09
2023-08-07T17:34:57.754Z,98314.88
2023-08-07T17:37:25.088Z,98309.16
2023-08-07T17:39:52.498Z,98309.94
2023-08-07T17:42:19.552Z,98324.97
2023-08-07T17:44:46.802Z,98316.63
2023-08-07T17:47:13.940Z,98311.19
2023-08-07T17:49:41.692Z,98313.38
2023-08-07T17:52:09.003Z,98314.31
2023-08-07T17:54:39.053Z,98321.50
2023-08-07T17:57:06.831Z,98312.38
2023-08-07T17:59:34.269Z,98324.91
2023-08-07T18:02:01.257Z,98320.78
2023-08-07T18:04:29.194Z,98333.28
2023-08-07T18:06:56.620Z,98333.19
2023-08-07T18:09:24.260Z,98340.00
2023-08-07T18:11:51.753Z,98342.53
2023-08-07T18:14:19.066Z,98345.22
2023-08-07T18:16:46.089Z,98351.63
2023-08-07T18:19:14.326Z,98362.06
2023-08-07T18:21:41.368Z,98368.03
2023-08-07T18:24:08.768Z,98366.09
2023-08-07T18:26:35.899Z,98386.84
2023-08-07T18:29:03.310Z,98388.28
2023-08-07T18:31:32.696Z,98390.84
2023-08-07T18:34:00.048Z,98398.72
2023-08-07T18:36:27.263Z,98397.81
2023-08-07T18:38:54.567Z,98395.72
2023-08-07T18:41:21.673Z,98400.09
2023-08-07T18:43:48.960Z,98392.69
2023-08-07T18:46:17.704Z,98398.38
2023-08-07T18:48:45.110Z,98403.47
2023-08-07T18:51:12.700Z,98402.00
2023-08-07T18:53:40.393Z,98398.00
2023-08-07T18:56:07.612Z,98404.59
2023-08-07T18:58:35.335Z,98415.88
2023-08-07T19:01:02.532Z,98417.06
2023-08-07T19:03:30.044Z,98431.28
2023-08-07T19:05:57.124Z,98429.06
2023-08-07T19:08:24.425Z,98438.28
2023-08-07T19:10:51.442Z,98428.56
2023-08-07T19:13:18.656Z,98447.78
2023-08-07T19:15:47.009Z,98440.66
2023-08-07T19:18:14.336Z,98441.34
2023-08-07T19:20:43.204Z,98437.34
2023-08-07T19:23:12.090Z,98457.44
2023-08-07T19:25:39.215Z,98449.44
2023-08-07T19:28:07.061Z,98446.56
2023-08-07T19:30:35.309Z,98458.22
2023-08-07T19:33:03.065Z,98460.22
2023-08-07T19:35:30.385Z,98462.66
2023-08-07T19:37:57.810Z,98465.34
2023-08-07T19:40:28.726Z,98469.00
2023-08-07T19:42:56.077Z,98476.13
2023-08-07T19:45:23.332Z,98472.38
2023-08-07T19:47:53.848Z,98477.59
2023-08-07T19:50:21.737Z,98482.44
2023-08-07T19:52:49.107Z,98479.81
2023-08-07T19:55:18.087Z,98481.63
2023-08-07T19:57:45.596Z,98484.91
2023-08-07T20:00:14.140Z,98487.19
2023-08-07T20:02:41.998Z,98487.41
2023-08-07T20:05:09.560Z,98486.22
2023-08-07T20:07:36.956Z,98490.19
2023-08-07T20:10:07.936Z,98496.13
2023-08-07T20:12:35.346Z,98495.91
2023-08-07T20:15:02.410Z,98499.06
2023-08-07T20:17:30.036Z,98494.78
2023-08-07T20:19:57.045Z,98500.84
2023-08-07T20:22:24.275Z,98503.63
2023-08-07T20:24:51.303Z,98499.38
2023-08-07T20:27:18.615Z,98495.56
2023-08-07T20:29:45.770Z,98490.03
2023-08-07T20:32:12.968Z,98493.44
2023-08-07T20:34:39.961Z,98493.66
2023-08-07T20:37:07.457Z,98495.78
2023-08-07T20:39:34.411Z,98495.34
2023-08-07T20:42:01.799Z,98495.28
2023-08-07T20:44:29.017Z,98501.56
2023-08-07T20:46:56.354Z,98505.59
2023-08-07T20:49:23.559Z,98507.34
2023-08-07T20:51:50.824Z,98513.84
2023-08-07T20:54:17.842Z,98509.13
2023-08-07T20:56:45.253Z,98510.97
2023-08-07T20:59:12.311Z,98504.16
2023-08-07T21:01:41.212Z,98506.16
2023-08-07T21:04:08.398Z,98505.66
2023-08-07T21:06:35.807Z,98517.91
2023-08-07T21:09:03.236Z,98519.91
2023-08-07T21:11:30.843Z,98513.97
2023-08-07T21:13:59.942Z,98508.84
2023-08-07T21:16:27.620Z,98514.59
2023-08-07T21:18:54.609Z,98511.19
2023-08-07T21:21:25.788Z,98511.72
2023-08-07T21:23:53.391Z,98517.16
2023-08-07T21:26:21.465Z,98512.38
2023-08-07T21:28:48.448Z,98511.84
2023-08-07T21:31:15.747Z,98514.22
2023-08-07T21:33:42.754Z,98512.59
2023-08-07T21:36:10.084Z,98516.75
2023-08-07T21:38:37.196Z,98519.28
2023-08-07T21:41:04.405Z,98520.91
2023-08-07T21:43:31.395Z,98519.44
2023-08-07T21:45:58.737Z,98513.34
2023-08-07T21:48:25.797Z,98508.66
2023-08-07T21:50:53.142Z,98520.59
2023-08-07T21:53:20.444Z,98514.53
2023-08-07T21:55:47.690Z,98518.03
2023-08-07T21:58:14.716Z,98519.94
2023-08-07T22:00:42.017Z,98518.69
2023-08-07T22:03:09.089Z,98524.22
2023-08-07T22:05:36.441Z,98518.88
2023-08-07T22:08:04.913Z,98519.63
2023-08-07T22:10:32.153Z,98519.63
2023-08-07T22:12:59.157Z,98521.44
2023-08-07T22:15:26.411Z,98520.47
2023-08-07T22:17:54.551Z,98512.59
2023-08-07T22:20:22.565Z,98529.41
2023-08-07T22:22:49.838Z,98524.09
2023-08-07T22:25:17.241Z,98529.41
2023-08-07T22:27:44.362Z,98525.81
2023-08-07T22:30:14.406Z,98528.56
2023-08-07T22:32:43.053Z,98526.84
2023-08-07T22:35:10.490Z,98535.47
2023-08-07T22:37:37.550Z,98526.75
2023-08-07T22:40:05.655Z,98524.28
2023-08-07T22:42:32.794Z,98512.28
2023-08-07T22:45:00.049Z,98512.41
2023-08-07T22:47:27.069Z,98511.41
2023-08-07T22:49:54.405Z,98508.75
2023-08-07T22:52:21.366Z,98511.22
2023-08-07T22:54:48.649Z,98512.28
2023-08-07T22:57:15.662Z,98510.56
2023-08-07T22:59:42.893Z,98516.00
2023-08-07T23:02:09.927Z,98522.31
2023-08-07T23:04:37.140Z,98531.03
2023-08-07T23:07:04.374Z,98531.75
2023-08-07T23:09:32.017Z,98534.72
2023-08-07T23:11:59.192Z,98532.94
2023-08-07T23:14:26.573Z,98532.81
2023-08-07T23:16:53.823Z,98531.13
2023-08-07T23:19:21.070Z,98534.00
2023-08-07T23:21:48.090Z,98535.38
2023-08-07T23:24:15.292Z,98540.69
2023-08-07T23:26:42.286Z,98533.34
2023-08-07T23:29:09.549Z,98536.97
2023-08-07T23:31:36.650Z,98537.81
2023-08-07T23:34:04.958Z,98531.63
2023-08-07T23:36:32.212Z,98531.09
2023-08-07T23:38:59.508Z,98538.22
2023-08-07T23:41:26.555Z,98539.06
2023-08-07T23:43:53.780Z,98542.88
2023-08-07T23:46:20.790Z,98543.41
2023-08-07T23:48:48.074Z,98541.84
2023-08-07T23:51:15.142Z,98534.81
2023-08-07T23:53:42.329Z,98538.00
2023-08-07T23:56:09.642Z,98536.31
2023-08-07T23:58:36.836Z,98536.50
